sensor_id;sensor_type;location;lat;lon;timestamp;P1;durP1;ratioP1;P2;durP2;ratioP2
17079;SDS011;8655;57.106;-2.088;2023-07-13T00:01:49;3.33;;;1.70;;
17079;SDS011;8655;57.106;-2.088;2023-07-13T00:04:17;4.68;;;1.90;;
17079;SDS011;8655;57.106;-2.088;2023-07-13T00:06:44;4.40;;;1.70;;
17079;SDS011;8655;57.106;-2.088;2023-07-13T00:09:14;5.13;;;1.85;;
17079;SDS011;8655;57.106;-2.088;2023-07-13T00:11:42;2.78;;;1.70;;
17079;SDS011;8655;57.106;-2.088;2023-07-13T00:14:08;4.00;;;2.00;;
17079;SDS011;8655;57.106;-2.088;2023-07-13T00:16:35;3.42;;;1.55;;
17079;SDS011;8655;57.106;-2.088;2023-07-13T00:19:02;4.32;;;1.95;;
17079;SDS011;8655;57.106;-2.088;2023-07-13T00:21:28;4.25;;;2.15;;
17079;SDS011;8655;57.106;-2.088;2023-07-13T00:23:54;2.53;;;1.65;;
17079;SDS011;8655;57.106;-2.088;2023-07-13T00:26:19;13.80;;;2.10;;
17079;SDS011;8655;57.106;-2.088;2023-07-13T00:28:45;12.25;;;2.00;;
17079;SDS011;8655;57.106;-2.088;2023-07-13T00:31:11;12.07;;;2.00;;
17079;SDS011;8655;57.106;-2.088;2023-07-13T00:33:39;6.43;;;1.90;;
17079;SDS011;8655;57.106;-2.088;2023-07-13T00:36:07;4.82;;;1.92;;
17079;SDS011;8655;57.106;-2.088;2023-07-13T00:38:34;6.43;;;1.80;;
17079;SDS011;8655;57.106;-2.088;2023-07-13T00:41:01;9.68;;;2.00;;
17079;SDS011;8655;57.106;-2.088;2023-07-13T00:43:29;12.38;;;1.92;;
17079;SDS011;8655;57.106;-2.088;2023-07-13T00:48:27;5.03;;;1.70;;
17079;SDS011;8655;57.106;-2.088;2023-07-13T00:50:59;5.60;;;1.30;;
17079;SDS011;8655;57.106;-2.088;2023-07-13T00:53:26;9.73;;;1.60;;
17079;SDS011;8655;57.106;-2.088;2023-07-13T00:55:55;5.63;;;2.10;;
17079;SDS011;8655;57.106;-2.088;2023-07-13T00:58:22;3.75;;;1.42;;
17079;SDS011;8655;57.106;-2.088;2023-07-13T01:00:50;6.28;;;1.60;;
17079;SDS011;8655;57.106;-2.088;2023-07-13T01:03:17;3.38;;;1.40;;
17079;SDS011;8655;57.106;-2.088;2023-07-13T01:05:44;6.00;;;1.73;;
17079;SDS011;8655;57.106;-2.088;2023-07-13T01:08:13;6.35;;;1.60;;
17079;SDS011;8655;57.106;-2.088;2023-07-13T01:10:39;3.33;;;1.65;;
17079;SDS011;8655;57.106;-2.088;2023-07-13T01:13:10;3.47;;;1.50;;
17079;SDS011;8655;57.106;-2.088;2023-07-13T01:18:13;3.78;;;1.55;;
17079;SDS011;8655;57.106;-2.088;2023-07-13T01:23:21;1.92;;;1.50;;
17079;SDS011;8655;57.106;-2.088;2023-07-13T01:25:47;1.77;;;1.30;;
17079;SDS011;8655;57.106;-2.088;2023-07-13T01:28:14;2.72;;;1.60;;
17079;SDS011;8655;57.106;-2.088;2023-07-13T01:30:41;2.85;;;1.50;;
17079;SDS011;8655;57.106;-2.088;2023-07-13T01:33:10;3.45;;;1.30;;
17079;SDS011;8655;57.106;-2.088;2023-07-13T01:35:37;3.45;;;1.50;;
17079;SDS011;8655;57.106;-2.088;2023-07-13T01:38:03;1.65;;;1.30;;
17079;SDS011;8655;57.106;-2.088;2023-07-13T01:40:30;2.17;;;1.20;;
17079;SDS011;8655;57.106;-2.088;2023-07-13T01:42:57;3.92;;;1.70;;
17079;SDS011;8655;57.106;-2.088;2023-07-13T01:45:23;3.38;;;1.48;;
17079;SDS011;8655;57.106;-2.088;2023-07-13T01:47:49;3.17;;;1.20;;
17079;SDS011;8655;57.106;-2.088;2023-07-13T01:50:15;2.30;;;1.42;;
17079;SDS011;8655;57.106;-2.088;2023-07-13T01:52:41;3.63;;;1.50;;
17079;SDS011;8655;57.106;-2.088;2023-07-13T01:55:07;2.83;;;1.42;;
17079;SDS011;8655;57.106;-2.088;2023-07-13T01:57:33;2.45;;;1.35;;
17079;SDS011;8655;57.106;-2.088;2023-07-13T01:59:59;3.72;;;1.23;;
17079;SDS011;8655;57.106;-2.088;2023-07-13T02:02:26;2.92;;;1.55;;
17079;SDS011;8655;57.106;-2.088;2023-07-13T02:04:51;2.08;;;1.30;;
17079;SDS011;8655;57.106;-2.088;2023-07-13T02:07:17;3.90;;;1.30;;
17079;SDS011;8655;57.106;-2.088;2023-07-13T02:09:43;2.03;;;1.48;;
17079;SDS011;8655;57.106;-2.088;2023-07-13T02:12:08;1.67;;;1.13;;
17079;SDS011;8655;57.106;-2.088;2023-07-13T02:14:34;1.80;;;1.05;;
17079;SDS011;8655;57.106;-2.088;2023-07-13T02:17:00;2.10;;;1.30;;
17079;SDS011;8655;57.106;-2.088;2023-07-13T02:19:26;1.80;;;1.30;;
17079;SDS011;8655;57.106;-2.088;2023-07-13T02:21:51;2.00;;;1.40;;
17079;SDS011;8655;57.106;-2.088;2023-07-13T02:24:17;3.17;;;1.52;;
17079;SDS011;8655;57.106;-2.088;2023-07-13T02:26:44;1.63;;;1.10;;
17079;SDS011;8655;57.106;-2.088;2023-07-13T02:29:10;4.90;;;1.40;;
17079;SDS011;8655;57.106;-2.088;2023-07-13T02:31:36;6.32;;;1.58;;
17079;SDS011;8655;57.106;-2.088;2023-07-13T02:34:02;3.65;;;1.42;;
17079;SDS011;8655;57.106;-2.088;2023-07-13T02:36:29;1.88;;;1.40;;
17079;SDS011;8655;57.106;-2.088;2023-07-13T02:38:55;1.80;;;1.30;;
17079;SDS011;8655;57.106;-2.088;2023-07-13T02:41:21;1.70;;;1.30;;
17079;SDS011;8655;57.106;-2.088;2023-07-13T02:43:48;4.10;;;1.20;;
17079;SDS011;8655;57.106;-2.088;2023-07-13T02:46:14;4.70;;;1.30;;
17079;SDS011;8655;57.106;-2.088;2023-07-13T02:48:40;2.45;;;1.20;;
17079;SDS011;8655;57.106;-2.088;2023-07-13T02:51:06;5.05;;;1.60;;
17079;SDS011;8655;57.106;-2.088;2023-07-13T02:53:33;3.05;;;1.30;;
17079;SDS011;8655;57.106;-2.088;2023-07-13T02:56:00;3.85;;;1.50;;
17079;SDS011;8655;57.106;-2.088;2023-07-13T02:58:26;2.90;;;1.40;;
17079;SDS011;8655;57.106;-2.088;2023-07-13T03:00:52;2.70;;;1.55;;
17079;SDS011;8655;57.106;-2.088;2023-07-13T03:03:18;3.13;;;1.75;;
17079;SDS011;8655;57.106;-2.088;2023-07-13T03:05:44;3.00;;;1.40;;
17079;SDS011;8655;57.106;-2.088;2023-07-13T03:08:15;1.45;;;1.17;;
17079;SDS011;8655;57.106;-2.088;2023-07-13T03:10:41;2.97;;;1.25;;
17079;SDS011;8655;57.106;-2.088;2023-07-13T03:13:07;3.92;;;1.40;;
17079;SDS011;8655;57.106;-2.088;2023-07-13T03:15:33;2.03;;;1.48;;
17079;SDS011;8655;57.106;-2.088;2023-07-13T03:17:58;2.92;;;1.40;;
17079;SDS011;8655;57.106;-2.088;2023-07-13T03:20:24;2.50;;;1.38;;
17079;SDS011;8655;57.106;-2.088;2023-07-13T03:22:50;1.90;;;1.17;;
17079;SDS011;8655;57.106;-2.088;2023-07-13T03:25:16;1.55;;;1.20;;
17079;SDS011;8655;57.106;-2.088;2023-07-13T03:27:41;3.03;;;1.40;;
17079;SDS011;8655;57.106;-2.088;2023-07-13T03:30:07;1.73;;;1.27;;
17079;SDS011;8655;57.106;-2.088;2023-07-13T03:32:33;1.27;;;1.02;;
17079;SDS011;8655;57.106;-2.088;2023-07-13T03:34:59;4.30;;;1.20;;
17079;SDS011;8655;57.106;-2.088;2023-07-13T03:37:25;4.35;;;1.20;;
17079;SDS011;8655;57.106;-2.088;2023-07-13T03:39:50;2.55;;;1.38;;
17079;SDS011;8655;57.106;-2.088;2023-07-13T03:42:16;2.85;;;1.30;;
17079;SDS011;8655;57.106;-2.088;2023-07-13T03:44:42;1.17;;;1.00;;
17079;SDS011;8655;57.106;-2.088;2023-07-13T03:47:11;3.78;;;1.17;;
17079;SDS011;8655;57.106;-2.088;2023-07-13T03:49:37;2.65;;;1.40;;
17079;SDS011;8655;57.106;-2.088;2023-07-13T03:52:02;4.53;;;1.50;;
17079;SDS011;8655;57.106;-2.088;2023-07-13T03:54:28;2.63;;;1.30;;
17079;SDS011;8655;57.106;-2.088;2023-07-13T03:56:54;3.28;;;1.40;;
17079;SDS011;8655;57.106;-2.088;2023-07-13T03:59:20;2.13;;;1.20;;
17079;SDS011;8655;57.106;-2.088;2023-07-13T04:01:46;1.65;;;1.20;;
17079;SDS011;8655;57.106;-2.088;2023-07-13T04:04:12;2.35;;;1.30;;
17079;SDS011;8655;57.106;-2.088;2023-07-13T04:06:37;1.38;;;1.20;;
17079;SDS011;8655;57.106;-2.088;2023-07-13T04:09:03;1.58;;;1.25;;
17079;SDS011;8655;57.106;-2.088;2023-07-13T04:11:33;2.50;;;1.45;;
17079;SDS011;8655;57.106;-2.088;2023-07-13T04:14:01;1.95;;;1.23;;
17079;SDS011;8655;57.106;-2.088;2023-07-13T04:16:27;1.83;;;1.00;;
17079;SDS011;8655;57.106;-2.088;2023-07-13T04:18:54;2.55;;;1.38;;
17079;SDS011;8655;57.106;-2.088;2023-07-13T04:21:24;2.38;;;1.52;;
17079;SDS011;8655;57.106;-2.088;2023-07-13T04:23:50;1.42;;;1.10;;
17079;SDS011;8655;57.106;-2.088;2023-07-13T04:26:16;1.92;;;1.20;;
17079;SDS011;8655;57.106;-2.088;2023-07-13T04:28:41;5.15;;;1.20;;
17079;SDS011;8655;57.106;-2.088;2023-07-13T04:31:07;1.15;;;1.05;;
17079;SDS011;8655;57.106;-2.088;2023-07-13T04:33:33;2.63;;;1.27;;
17079;SDS011;8655;57.106;-2.088;2023-07-13T04:35:59;2.15;;;1.33;;
17079;SDS011;8655;57.106;-2.088;2023-07-13T04:38:27;1.77;;;1.30;;
17079;SDS011;8655;57.106;-2.088;2023-07-13T04:40:55;1.30;;;1.20;;
17079;SDS011;8655;57.106;-2.088;2023-07-13T04:43:23;2.08;;;1.42;;
17079;SDS011;8655;57.106;-2.088;2023-07-13T04:45:49;1.55;;;1.20;;
17079;SDS011;8655;57.106;-2.088;2023-07-13T04:48:16;1.52;;;1.20;;
17079;SDS011;8655;57.106;-2.088;2023-07-13T04:50:41;1.73;;;1.30;;
17079;SDS011;8655;57.106;-2.088;2023-07-13T04:53:08;1.25;;;1.10;;
17079;SDS011;8655;57.106;-2.088;2023-07-13T04:55:35;1.20;;;1.10;;
17079;SDS011;8655;57.106;-2.088;2023-07-13T04:58:01;2.25;;;1.25;;
17079;SDS011;8655;57.106;-2.088;2023-07-13T05:00:28;2.80;;;1.25;;
17079;SDS011;8655;57.106;-2.088;2023-07-13T05:02:55;1.23;;;1.05;;
17079;SDS011;8655;57.106;-2.088;2023-07-13T05:05:21;1.75;;;1.10;;
17079;SDS011;8655;57.106;-2.088;2023-07-13T05:07:47;1.92;;;1.10;;
17079;SDS011;8655;57.106;-2.088;2023-07-13T05:10:12;1.90;;;1.30;;
17079;SDS011;8655;57.106;-2.088;2023-07-13T05:12:38;2.70;;;1.40;;
17079;SDS011;8655;57.106;-2.088;2023-07-13T05:15:04;1.77;;;1.60;;
17079;SDS011;8655;57.106;-2.088;2023-07-13T05:17:30;4.90;;;2.22;;
17079;SDS011;8655;57.106;-2.088;2023-07-13T05:19:55;2.67;;;1.80;;
17079;SDS011;8655;57.106;-2.088;2023-07-13T05:22:21;1.48;;;1.30;;
17079;SDS011;8655;57.106;-2.088;2023-07-13T05:24:47;2.20;;;1.60;;
17079;SDS011;8655;57.106;-2.088;2023-07-13T05:27:12;1.10;;;1.00;;
17079;SDS011;8655;57.106;-2.088;2023-07-13T05:29:38;1.63;;;1.15;;
17079;SDS011;8655;57.106;-2.088;2023-07-13T05:32:04;2.47;;;1.27;;
17079;SDS011;8655;57.106;-2.088;2023-07-13T05:34:30;10.32;;;1.55;;
17079;SDS011;8655;57.106;-2.088;2023-07-13T05:36:55;4.43;;;1.13;;
17079;SDS011;8655;57.106;-2.088;2023-07-13T05:39:21;3.92;;;1.30;;
17079;SDS011;8655;57.106;-2.088;2023-07-13T05:41:47;2.65;;;1.08;;
17079;SDS011;8655;57.106;-2.088;2023-07-13T05:44:13;3.25;;;1.52;;
17079;SDS011;8655;57.106;-2.088;2023-07-13T05:46:39;2.92;;;1.02;;
17079;SDS011;8655;57.106;-2.088;2023-07-13T05:49:04;2.15;;;1.27;;
17079;SDS011;8655;57.106;-2.088;2023-07-13T05:51:30;1.73;;;0.93;;
17079;SDS011;8655;57.106;-2.088;2023-07-13T05:53:56;3.97;;;1.10;;
17079;SDS011;8655;57.106;-2.088;2023-07-13T05:56:22;2.78;;;1.10;;
17079;SDS011;8655;57.106;-2.088;2023-07-13T05:58:48;1.48;;;1.20;;
17079;SDS011;8655;57.106;-2.088;2023-07-13T06:01:14;1.30;;;1.20;;
17079;SDS011;8655;57.106;-2.088;2023-07-13T06:03:41;1.83;;;1.20;;
17079;SDS011;8655;57.106;-2.088;2023-07-13T06:06:07;1.13;;;1.02;;
17079;SDS011;8655;57.106;-2.088;2023-07-13T06:08:35;2.75;;;1.10;;
17079;SDS011;8655;57.106;-2.088;2023-07-13T06:11:24;1.25;;;1.10;;
17079;SDS011;8655;57.106;-2.088;2023-07-13T06:13:48;1.58;;;1.08;;
17079;SDS011;8655;57.106;-2.088;2023-07-13T06:16:14;5.68;;;1.25;;
17079;SDS011;8655;57.106;-2.088;2023-07-13T06:18:41;2.42;;;1.17;;
17079;SDS011;8655;57.106;-2.088;2023-07-13T06:21:11;2.80;;;1.50;;
17079;SDS011;8655;57.106;-2.088;2023-07-13T06:23:39;1.33;;;0.95;;
17079;SDS011;8655;57.106;-2.088;2023-07-13T06:26:05;3.95;;;1.42;;
17079;SDS011;8655;57.106;-2.088;2023-07-13T06:28:32;15.50;;;1.85;;
17079;SDS011;8655;57.106;-2.088;2023-07-13T06:30:59;22.38;;;1.98;;
17079;SDS011;8655;57.106;-2.088;2023-07-13T06:33:25;17.15;;;1.70;;
17079;SDS011;8655;57.106;-2.088;2023-07-13T06:35:51;20.40;;;2.05;;
17079;SDS011;8655;57.106;-2.088;2023-07-13T06:38:16;12.73;;;1.90;;
17079;SDS011;8655;57.106;-2.088;2023-07-13T06:40:42;16.38;;;2.55;;
17079;SDS011;8655;57.106;-2.088;2023-07-13T06:43:08;14.80;;;1.95;;
17079;SDS011;8655;57.106;-2.088;2023-07-13T06:45:44;12.57;;;1.88;;
17079;SDS011;8655;57.106;-2.088;2023-07-13T06:48:12;10.57;;;1.80;;
17079;SDS011;8655;57.106;-2.088;2023-07-13T06:50:39;9.05;;;1.73;;
17079;SDS011;8655;57.106;-2.088;2023-07-13T06:53:05;12.27;;;1.90;;
17079;SDS011;8655;57.106;-2.088;2023-07-13T06:55:31;6.38;;;1.60;;
17079;SDS011;8655;57.106;-2.088;2023-07-13T06:57:57;9.73;;;1.48;;
17079;SDS011;8655;57.106;-2.088;2023-07-13T07:00:23;3.88;;;1.50;;
17079;SDS011;8655;57.106;-2.088;2023-07-13T07:02:48;7.25;;;1.25;;
17079;SDS011;8655;57.106;-2.088;2023-07-13T07:05:14;5.20;;;1.50;;
17079;SDS011;8655;57.106;-2.088;2023-07-13T07:07:40;3.95;;;1.20;;
17079;SDS011;8655;57.106;-2.088;2023-07-13T07:10:06;3.40;;;1.40;;
17079;SDS011;8655;57.106;-2.088;2023-07-13T07:12:32;3.83;;;1.30;;
17079;SDS011;8655;57.106;-2.088;2023-07-13T07:14:57;6.07;;;1.50;;
17079;SDS011;8655;57.106;-2.088;2023-07-13T07:17:23;4.47;;;1.48;;
17079;SDS011;8655;57.106;-2.088;2023-07-13T07:19:50;2.75;;;1.08;;
17079;SDS011;8655;57.106;-2.088;2023-07-13T07:22:15;5.40;;;1.35;;
17079;SDS011;8655;57.106;-2.088;2023-07-13T07:24:41;3.60;;;1.50;;
17079;SDS011;8655;57.106;-2.088;2023-07-13T07:27:07;4.03;;;1.30;;
17079;SDS011;8655;57.106;-2.088;2023-07-13T07:29:33;5.38;;;1.23;;
17079;SDS011;8655;57.106;-2.088;2023-07-13T07:31:59;2.47;;;1.33;;
17079;SDS011;8655;57.106;-2.088;2023-07-13T07:34:25;5.13;;;1.45;;
17079;SDS011;8655;57.106;-2.088;2023-07-13T07:36:51;1.77;;;1.10;;
17079;SDS011;8655;57.106;-2.088;2023-07-13T07:39:18;1.52;;;1.00;;
17079;SDS011;8655;57.106;-2.088;2023-07-13T07:41:43;5.70;;;1.45;;
17079;SDS011;8655;57.106;-2.088;2023-07-13T07:44:09;11.93;;;2.13;;
17079;SDS011;8655;57.106;-2.088;2023-07-13T07:46:35;6.90;;;1.55;;
17079;SDS011;8655;57.106;-2.088;2023-07-13T07:49:01;3.92;;;1.23;;
17079;SDS011;8655;57.106;-2.088;2023-07-13T07:51:26;5.63;;;1.50;;
17079;SDS011;8655;57.106;-2.088;2023-07-13T07:53:52;5.65;;;1.30;;
17079;SDS011;8655;57.106;-2.088;2023-07-13T07:56:18;3.15;;;1.40;;
17079;SDS011;8655;57.106;-2.088;2023-07-13T08:01:19;4.00;;;1.50;;
17079;SDS011;8655;57.106;-2.088;2023-07-13T08:03:45;2.10;;;1.00;;
17079;SDS011;8655;57.106;-2.088;2023-07-13T08:06:11;3.08;;;1.02;;
17079;SDS011;8655;57.106;-2.088;2023-07-13T08:08:36;4.07;;;1.50;;
17079;SDS011;8655;57.106;-2.088;2023-07-13T08:11:05;4.82;;;1.35;;
17079;SDS011;8655;57.106;-2.088;2023-07-13T08:13:32;4.95;;;1.33;;
17079;SDS011;8655;57.106;-2.088;2023-07-13T08:15:58;2.03;;;1.20;;
17079;SDS011;8655;57.106;-2.088;2023-07-13T08:18:24;2.22;;;1.40;;
17079;SDS011;8655;57.106;-2.088;2023-07-13T08:20:50;4.45;;;1.40;;
17079;SDS011;8655;57.106;-2.088;2023-07-13T08:23:16;9.82;;;1.75;;
17079;SDS011;8655;57.106;-2.088;2023-07-13T08:25:42;3.72;;;1.40;;
17079;SDS011;8655;57.106;-2.088;2023-07-13T08:28:08;10.35;;;1.63;;
17079;SDS011;8655;57.106;-2.088;2023-07-13T08:30:33;3.70;;;1.30;;
17079;SDS011;8655;57.106;-2.088;2023-07-13T08:33:01;3.58;;;1.60;;
17079;SDS011;8655;57.106;-2.088;2023-07-13T08:35:27;7.63;;;2.13;;
17079;SDS011;8655;57.106;-2.088;2023-07-13T08:40:28;7.28;;;1.80;;
17079;SDS011;8655;57.106;-2.088;2023-07-13T08:42:55;8.45;;;2.25;;
17079;SDS011;8655;57.106;-2.088;2023-07-13T08:47:57;8.02;;;2.38;;
17079;SDS011;8655;57.106;-2.088;2023-07-13T08:50:29;6.53;;;2.60;;
17079;SDS011;8655;57.106;-2.088;2023-07-13T08:52:59;3.38;;;2.63;;
17079;SDS011;8655;57.106;-2.088;2023-07-13T08:55:30;4.43;;;2.72;;
17079;SDS011;8655;57.106;-2.088;2023-07-13T09:01:19;6.90;;;2.90;;
17079;SDS011;8655;57.106;-2.088;2023-07-13T09:03:42;5.63;;;2.28;;
17079;SDS011;8655;57.106;-2.088;2023-07-13T09:06:37;6.05;;;2.05;;
17079;SDS011;8655;57.106;-2.088;2023-07-13T09:09:39;7.63;;;1.90;;
17079;SDS011;8655;57.106;-2.088;2023-07-13T09:12:25;4.10;;;1.48;;
17079;SDS011;8655;57.106;-2.088;2023-07-13T09:14:58;7.93;;;1.88;;
17079;SDS011;8655;57.106;-2.088;2023-07-13T09:20:21;10.85;;;2.05;;
17079;SDS011;8655;57.106;-2.088;2023-07-13T09:22:52;7.70;;;1.80;;
17079;SDS011;8655;57.106;-2.088;2023-07-13T09:25:32;6.13;;;1.92;;
17079;SDS011;8655;57.106;-2.088;2023-07-13T09:28:08;3.83;;;1.83;;
17079;SDS011;8655;57.106;-2.088;2023-07-13T09:33:08;10.55;;;1.65;;
17079;SDS011;8655;57.106;-2.088;2023-07-13T09:35:34;8.63;;;1.60;;
17079;SDS011;8655;57.106;-2.088;2023-07-13T09:38:14;6.88;;;1.52;;
17079;SDS011;8655;57.106;-2.088;2023-07-13T09:43:07;5.35;;;1.60;;
17079;SDS011;8655;57.106;-2.088;2023-07-13T09:45:38;4.97;;;1.90;;
17079;SDS011;8655;57.106;-2.088;2023-07-13T09:48:10;9.25;;;1.98;;
17079;SDS011;8655;57.106;-2.088;2023-07-13T09:50:41;5.70;;;1.70;;
17079;SDS011;8655;57.106;-2.088;2023-07-13T09:53:15;3.25;;;1.70;;
17079;SDS011;8655;57.106;-2.088;2023-07-13T09:55:44;4.55;;;1.38;;
17079;SDS011;8655;57.106;-2.088;2023-07-13T09:58:14;9.73;;;1.85;;
17079;SDS011;8655;57.106;-2.088;2023-07-13T10:00:58;6.07;;;2.10;;
17079;SDS011;8655;57.106;-2.088;2023-07-13T10:03:31;3.63;;;1.50;;
17079;SDS011;8655;57.106;-2.088;2023-07-13T10:06:16;3.78;;;1.30;;
17079;SDS011;8655;57.106;-2.088;2023-07-13T10:08:47;5.10;;;1.60;;
17079;SDS011;8655;57.106;-2.088;2023-07-13T10:16:25;29.73;;;3.58;;
17079;SDS011;8655;57.106;-2.088;2023-07-13T10:18:58;38.45;;;4.13;;
17079;SDS011;8655;57.106;-2.088;2023-07-13T10:21:32;33.42;;;3.97;;
17079;SDS011;8655;57.106;-2.088;2023-07-13T10:27:03;38.70;;;4.57;;
17079;SDS011;8655;57.106;-2.088;2023-07-13T10:29:32;32.05;;;4.00;;
17079;SDS011;8655;57.106;-2.088;2023-07-13T10:32:02;34.15;;;3.47;;
17079;SDS011;8655;57.106;-2.088;2023-07-13T10:34:34;30.88;;;3.88;;
17079;SDS011;8655;57.106;-2.088;2023-07-13T10:37:00;47.72;;;3.83;;
17079;SDS011;8655;57.106;-2.088;2023-07-13T10:39:27;22.70;;;3.85;;
17079;SDS011;8655;57.106;-2.088;2023-07-13T10:41:54;26.58;;;3.53;;
17079;SDS011;8655;57.106;-2.088;2023-07-13T10:44:26;26.25;;;3.65;;
17079;SDS011;8655;57.106;-2.088;2023-07-13T10:47:00;17.35;;;3.13;;
17079;SDS011;8655;57.106;-2.088;2023-07-13T10:49:31;21.80;;;3.67;;
17079;SDS011;8655;57.106;-2.088;2023-07-13T10:51:58;21.85;;;3.88;;
17079;SDS011;8655;57.106;-2.088;2023-07-13T10:54:30;23.10;;;2.83;;
17079;SDS011;8655;57.106;-2.088;2023-07-13T10:57:08;14.25;;;2.85;;
17079;SDS011;8655;57.106;-2.088;2023-07-13T11:00:29;15.32;;;3.35;;
17079;SDS011;8655;57.106;-2.088;2023-07-13T11:02:49;11.45;;;2.50;;
17079;SDS011;8655;57.106;-2.088;2023-07-13T11:05:26;9.35;;;2.65;;
17079;SDS011;8655;57.106;-2.088;2023-07-13T11:07:55;13.13;;;2.80;;
17079;SDS011;8655;57.106;-2.088;2023-07-13T11:10:51;12.02;;;2.83;;
17079;SDS011;8655;57.106;-2.088;2023-07-13T11:14:25;10.02;;;2.90;;
17079;SDS011;8655;57.106;-2.088;2023-07-13T11:24:28;10.93;;;2.50;;
17079;SDS011;8655;57.106;-2.088;2023-07-13T11:28:11;8.05;;;2.40;;
17079;SDS011;8655;57.106;-2.088;2023-07-13T11:35:37;16.85;;;2.90;;
17079;SDS011;8655;57.106;-2.088;2023-07-13T11:38:12;21.60;;;3.28;;
17079;SDS011;8655;57.106;-2.088;2023-07-13T11:40:45;17.10;;;3.20;;
17079;SDS011;8655;57.106;-2.088;2023-07-13T11:43:13;14.85;;;3.08;;
17079;SDS011;8655;57.106;-2.088;2023-07-13T11:45:40;21.90;;;2.55;;
17079;SDS011;8655;57.106;-2.088;2023-07-13T11:48:17;14.27;;;2.92;;
17079;SDS011;8655;57.106;-2.088;2023-07-13T11:51:06;18.98;;;3.08;;
17079;SDS011;8655;57.106;-2.088;2023-07-13T11:53:45;24.92;;;6.03;;
17079;SDS011;8655;57.106;-2.088;2023-07-13T11:56:12;79.57;;;12.88;;
17079;SDS011;8655;57.106;-2.088;2023-07-13T11:58:38;88.65;;;17.55;;
17079;SDS011;8655;57.106;-2.088;2023-07-13T12:01:04;85.45;;;18.33;;
17079;SDS011;8655;57.106;-2.088;2023-07-13T12:03:32;90.93;;;16.42;;
17079;SDS011;8655;57.106;-2.088;2023-07-13T12:06:04;95.38;;;17.33;;
17079;SDS011;8655;57.106;-2.088;2023-07-13T12:08:31;77.45;;;16.67;;
17079;SDS011;8655;57.106;-2.088;2023-07-13T12:11:04;66.63;;;14.80;;
17079;SDS011;8655;57.106;-2.088;2023-07-13T12:13:37;36.92;;;8.57;;
17079;SDS011;8655;57.106;-2.088;2023-07-13T12:16:10;32.83;;;9.27;;
17079;SDS011;8655;57.106;-2.088;2023-07-13T12:18:47;32.75;;;7.63;;
17079;SDS011;8655;57.106;-2.088;2023-07-13T12:21:14;29.50;;;6.47;;
17079;SDS011;8655;57.106;-2.088;2023-07-13T12:23:44;26.23;;;6.28;;
17079;SDS011;8655;57.106;-2.088;2023-07-13T12:26:12;25.33;;;4.53;;
17079;SDS011;8655;57.106;-2.088;2023-07-13T12:31:43;63.38;;;17.65;;
17079;SDS011;8655;57.106;-2.088;2023-07-13T12:34:14;89.20;;;22.63;;
17079;SDS011;8655;57.106;-2.088;2023-07-13T12:36:50;64.63;;;17.88;;
17079;SDS011;8655;57.106;-2.088;2023-07-13T12:39:34;48.92;;;13.30;;
17079;SDS011;8655;57.106;-2.088;2023-07-13T12:42:25;39.92;;;11.50;;
17079;SDS011;8655;57.106;-2.088;2023-07-13T12:44:53;35.88;;;10.23;;
17079;SDS011;8655;57.106;-2.088;2023-07-13T12:47:22;36.13;;;9.23;;
17079;SDS011;8655;57.106;-2.088;2023-07-13T12:49:49;28.05;;;7.38;;
17079;SDS011;8655;57.106;-2.088;2023-07-13T12:52:23;27.27;;;7.63;;
17079;SDS011;8655;57.106;-2.088;2023-07-13T12:54:56;36.38;;;7.88;;
17079;SDS011;8655;57.106;-2.088;2023-07-13T12:57:24;21.98;;;5.90;;
17079;SDS011;8655;57.106;-2.088;2023-07-13T12:59:54;20.30;;;5.50;;
17079;SDS011;8655;57.106;-2.088;2023-07-13T13:02:28;16.60;;;4.45;;
17079;SDS011;8655;57.106;-2.088;2023-07-13T13:04:59;11.05;;;3.67;;
17079;SDS011;8655;57.106;-2.088;2023-07-13T13:07:28;13.73;;;3.58;;
17079;SDS011;8655;57.106;-2.088;2023-07-13T13:09:54;78.35;;;10.52;;
17079;SDS011;8655;57.106;-2.088;2023-07-13T13:12:21;423.25;;;42.85;;
17079;SDS011;8655;57.106;-2.088;2023-07-13T13:14:50;947.33;;;116.13;;
17079;SDS011;8655;57.106;-2.088;2023-07-13T13:17:19;1014.20;;;130.30;;
17079;SDS011;8655;57.106;-2.088;2023-07-13T13:19:50;1036.70;;;147.57;;
17079;SDS011;8655;57.106;-2.088;2023-07-13T13:22:19;961.80;;;137.20;;
17079;SDS011;8655;57.106;-2.088;2023-07-13T13:24:45;977.17;;;134.77;;
17079;SDS011;8655;57.106;-2.088;2023-07-13T13:27:18;329.77;;;41.47;;
17079;SDS011;8655;57.106;-2.088;2023-07-13T13:29:46;309.58;;;40.42;;
17079;SDS011;8655;57.106;-2.088;2023-07-13T13:32:16;300.05;;;39.92;;
17079;SDS011;8655;57.106;-2.088;2023-07-13T13:34:43;105.28;;;14.95;;
17079;SDS011;8655;57.106;-2.088;2023-07-13T13:37:15;180.05;;;17.38;;
17079;SDS011;8655;57.106;-2.088;2023-07-13T13:39:46;234.18;;;18.58;;
17079;SDS011;8655;57.106;-2.088;2023-07-13T13:42:13;250.55;;;19.10;;
17079;SDS011;8655;57.106;-2.088;2023-07-13T13:44:39;199.52;;;15.68;;
17079;SDS011;8655;57.106;-2.088;2023-07-13T13:47:20;204.77;;;16.15;;
17079;SDS011;8655;57.106;-2.088;2023-07-13T13:49:52;126.75;;;11.60;;
17079;SDS011;8655;57.106;-2.088;2023-07-13T13:52:18;99.13;;;9.40;;
17079;SDS011;8655;57.106;-2.088;2023-07-13T13:54:44;48.47;;;5.05;;
17079;SDS011;8655;57.106;-2.088;2023-07-13T13:57:09;28.85;;;4.10;;
17079;SDS011;8655;57.106;-2.088;2023-07-13T13:59:37;33.55;;;3.80;;
17079;SDS011;8655;57.106;-2.088;2023-07-13T14:02:11;20.90;;;3.40;;
17079;SDS011;8655;57.106;-2.088;2023-07-13T14:05:02;19.27;;;2.88;;
17079;SDS011;8655;57.106;-2.088;2023-07-13T14:07:30;21.88;;;3.13;;
17079;SDS011;8655;57.106;-2.088;2023-07-13T14:09:56;18.08;;;2.95;;
17079;SDS011;8655;57.106;-2.088;2023-07-13T14:12:23;19.02;;;2.97;;
17079;SDS011;8655;57.106;-2.088;2023-07-13T14:14:53;14.32;;;2.40;;
17079;SDS011;8655;57.106;-2.088;2023-07-13T14:17:20;16.52;;;2.58;;
17079;SDS011;8655;57.106;-2.088;2023-07-13T14:19:49;7.97;;;2.10;;
17079;SDS011;8655;57.106;-2.088;2023-07-13T14:22:25;7.75;;;1.88;;
17079;SDS011;8655;57.106;-2.088;2023-07-13T14:24:52;5.18;;;1.70;;
17079;SDS011;8655;57.106;-2.088;2023-07-13T14:27:19;3.85;;;1.40;;
17079;SDS011;8655;57.106;-2.088;2023-07-13T14:29:45;3.30;;;1.50;;
17079;SDS011;8655;57.106;-2.088;2023-07-13T14:32:11;3.95;;;1.40;;
17079;SDS011;8655;57.106;-2.088;2023-07-13T14:34:38;4.93;;;1.55;;
17079;SDS011;8655;57.106;-2.088;2023-07-13T14:37:04;3.08;;;1.27;;
17079;SDS011;8655;57.106;-2.088;2023-07-13T14:39:30;5.30;;;1.52;;
17079;SDS011;8655;57.106;-2.088;2023-07-13T14:41:57;3.78;;;1.40;;
17079;SDS011;8655;57.106;-2.088;2023-07-13T14:44:26;5.32;;;1.70;;
17079;SDS011;8655;57.106;-2.088;2023-07-13T14:46:59;4.57;;;1.70;;
17079;SDS011;8655;57.106;-2.088;2023-07-13T14:49:31;4.63;;;1.10;;
17079;SDS011;8655;57.106;-2.088;2023-07-13T14:52:15;2.90;;;1.80;;
17079;SDS011;8655;57.106;-2.088;2023-07-13T14:54:43;3.15;;;1.17;;
17079;SDS011;8655;57.106;-2.088;2023-07-13T14:57:11;7.25;;;1.50;;
17079;SDS011;8655;57.106;-2.088;2023-07-13T14:59:41;12.18;;;1.40;;
17079;SDS011;8655;57.106;-2.088;2023-07-13T15:02:27;5.68;;;1.80;;
17079;SDS011;8655;57.106;-2.088;2023-07-13T15:04:58;4.25;;;1.60;;
17079;SDS011;8655;57.106;-2.088;2023-07-13T15:07:25;4.22;;;1.40;;
17079;SDS011;8655;57.106;-2.088;2023-07-13T15:09:50;2.45;;;1.30;;
17079;SDS011;8655;57.106;-2.088;2023-07-13T15:12:16;4.22;;;1.80;;
17079;SDS011;8655;57.106;-2.088;2023-07-13T15:14:42;4.47;;;1.50;;
17079;SDS011;8655;57.106;-2.088;2023-07-13T15:17:31;3.33;;;1.50;;
17079;SDS011;8655;57.106;-2.088;2023-07-13T15:20:03;6.57;;;1.70;;
17079;SDS011;8655;57.106;-2.088;2023-07-13T15:22:50;3.95;;;1.70;;
17079;SDS011;8655;57.106;-2.088;2023-07-13T15:25:26;5.57;;;1.70;;
17079;SDS011;8655;57.106;-2.088;2023-07-13T15:27:54;5.45;;;1.50;;
17079;SDS011;8655;57.106;-2.088;2023-07-13T15:30:21;4.75;;;1.60;;
17079;SDS011;8655;57.106;-2.088;2023-07-13T15:32:50;5.18;;;1.60;;
17079;SDS011;8655;57.106;-2.088;2023-07-13T15:35:16;4.10;;;1.50;;
17079;SDS011;8655;57.106;-2.088;2023-07-13T15:37:44;3.92;;;1.55;;
17079;SDS011;8655;57.106;-2.088;2023-07-13T15:40:11;10.60;;;2.00;;
17079;SDS011;8655;57.106;-2.088;2023-07-13T15:42:38;5.55;;;1.48;;